sensor_id;sensor_type;location;lat;lon;timestamp;temperature;humidity
10885;DHT22;5495;53.252;10.390;2022-11-20T00:01:26;1.80;99.90
10885;DHT22;5495;53.252;10.390;2022-11-20T00:03:55;1.80;99.90
10885;DHT22;5495;53.252;10.390;2022-11-20T00:06:24;1.80;99.90
10885;DHT22;5495;53.252;10.390;2022-11-20T00:08:51;1.80;99.90
10885;DHT22;5495;53.252;10.390;2022-11-20T00:11:22;1.80;99.90
10885;DHT22;5495;53.252;10.390;2022-11-20T00:13:51;1.70;99.90
10885;DHT22;5495;53.252;10.390;2022-11-20T00:16:20;1.70;99.90
10885;DHT22;5495;53.252;10.390;2022-11-20T00:18:47;1.70;99.90
10885;DHT22;5495;53.252;10.390;2022-11-20T00:21:16;1.70;99.90
10885;DHT22;5495;53.252;10.390;2022-11-20T00:23:44;1.70;99.90
10885;DHT22;5495;53.252;10.390;2022-11-20T00:26:13;1.70;99.90
10885;DHT22;5495;53.252;10.390;2022-11-20T00:28:41;1.70;99.90
10885;DHT22;5495;53.252;10.390;2022-11-20T00:31:10;1.70;99.90
10885;DHT22;5495;53.252;10.390;2022-11-20T00:33:38;1.70;99.90
10885;DHT22;5495;53.252;10.390;2022-11-20T00:36:07;1.70;99.90
10885;DHT22;5495;53.252;10.390;2022-11-20T00:38:36;1.80;99.90
10885;DHT22;5495;53.252;10.390;2022-11-20T00:41:07;1.80;99.90
10885;DHT22;5495;53.252;10.390;2022-11-20T00:43:35;1.70;99.90
10885;DHT22;5495;53.252;10.390;2022-11-20T00:46:04;1.70;99.90
10885;DHT22;5495;53.252;10.390;2022-11-20T00:48:32;1.70;99.90
10885;DHT22;5495;53.252;10.390;2022-11-20T00:50:59;1.70;99.90
10885;DHT22;5495;53.252;10.390;2022-11-20T00:53:26;1.70;99.90
10885;DHT22;5495;53.252;10.390;2022-11-20T00:55:55;1.70;99.90
10885;DHT22;5495;53.252;10.390;2022-11-20T00:58:22;1.60;99.90
10885;DHT22;5495;53.252;10.390;2022-11-20T01:00:50;1.60;99.90
10885;DHT22;5495;53.252;10.390;2022-11-20T01:03:18;1.60;99.90
10885;DHT22;5495;53.252;10.390;2022-11-20T01:05:45;1.60;99.90
10885;DHT22;5495;53.252;10.390;2022-11-20T01:08:12;1.60;99.90
10885;DHT22;5495;53.252;10.390;2022-11-20T01:10:39;3.40;99.90
10885;DHT22;5495;53.252;10.390;2022-11-20T01:13:06;1.60;99.90
10885;DHT22;5495;53.252;10.390;2022-11-20T01:15:50;1.60;99.90
10885;DHT22;5495;53.252;10.390;2022-11-20T01:18:18;1.60;99.90
10885;DHT22;5495;53.252;10.390;2022-11-20T01:20:45;1.60;99.90
10885;DHT22;5495;53.252;10.390;2022-11-20T01:23:12;1.50;99.90
10885;DHT22;5495;53.252;10.390;2022-11-20T01:25:39;1.60;99.90
10885;DHT22;5495;53.252;10.390;2022-11-20T01:28:06;1.60;99.90
10885;DHT22;5495;53.252;10.390;2022-11-20T01:30:33;1.50;99.90
10885;DHT22;5495;53.252;10.390;2022-11-20T01:33:00;1.50;99.90
10885;DHT22;5495;53.252;10.390;2022-11-20T01:35:27;1.50;99.90
10885;DHT22;5495;53.252;10.390;2022-11-20T01:37:54;1.60;99.90
10885;DHT22;5495;53.252;10.390;2022-11-20T01:40:21;1.60;99.90
10885;DHT22;5495;53.252;10.390;2022-11-20T01:42:53;1.60;99.90
10885;DHT22;5495;53.252;10.390;2022-11-20T01:46:13;1.50;99.90
10885;DHT22;5495;53.252;10.390;2022-11-20T01:48:45;1.50;99.90
10885;DHT22;5495;53.252;10.390;2022-11-20T01:51:23;1.40;99.90
10885;DHT22;5495;53.252;10.390;2022-11-20T01:53:54;1.40;99.90
10885;DHT22;5495;53.252;10.390;2022-11-20T01:56:23;1.00;99.90
10885;DHT22;5495;53.252;10.390;2022-11-20T01:58:53;1.40;99.90
10885;DHT22;5495;53.252;10.390;2022-11-20T02:01:21;1.40;99.90
10885;DHT22;5495;53.252;10.390;2022-11-20T02:03:49;1.40;99.90
10885;DHT22;5495;53.252;10.390;2022-11-20T02:06:21;1.40;99.90
10885;DHT22;5495;53.252;10.390;2022-11-20T02:08:51;1.30;99.90
10885;DHT22;5495;53.252;10.390;2022-11-20T02:11:19;1.20;99.90
10885;DHT22;5495;53.252;10.390;2022-11-20T02:13:46;1.20;99.90
10885;DHT22;5495;53.252;10.390;2022-11-20T02:16:16;1.10;99.90
10885;DHT22;5495;53.252;10.390;2022-11-20T02:18:46;1.10;99.90
10885;DHT22;5495;53.252;10.390;2022-11-20T02:21:24;1.00;99.90
10885;DHT22;5495;53.252;10.390;2022-11-20T02:26:49;0.80;99.90
10885;DHT22;5495;53.252;10.390;2022-11-20T02:29:19;0.80;99.90
10885;DHT22;5495;53.252;10.390;2022-11-20T02:31:48;0.70;99.90
10885;DHT22;5495;53.252;10.390;2022-11-20T02:34:15;0.60;99.90
10885;DHT22;5495;53.252;10.390;2022-11-20T02:36:43;0.60;99.90
10885;DHT22;5495;53.252;10.390;2022-11-20T02:39:12;0.50;99.90
10885;DHT22;5495;53.252;10.390;2022-11-20T02:41:42;0.50;99.90
10885;DHT22;5495;53.252;10.390;2022-11-20T02:44:09;0.40;99.90
10885;DHT22;5495;53.252;10.390;2022-11-20T02:46:36;0.40;99.90
10885;DHT22;5495;53.252;10.390;2022-11-20T02:49:04;0.50;99.90
10885;DHT22;5495;53.252;10.390;2022-11-20T02:51:32;0.40;99.90
10885;DHT22;5495;53.252;10.390;2022-11-20T02:54:01;0.40;99.90
10885;DHT22;5495;53.252;10.390;2022-11-20T02:56:32;0.40;99.90
10885;DHT22;5495;53.252;10.390;2022-11-20T02:58:59;0.40;99.90
10885;DHT22;5495;53.252;10.390;2022-11-20T03:01:26;0.50;99.90
10885;DHT22;5495;53.252;10.390;2022-11-20T03:03:53;0.50;99.90
10885;DHT22;5495;53.252;10.390;2022-11-20T03:06:20;0.50;99.90
10885;DHT22;5495;53.252;10.390;2022-11-20T03:08:47;0.50;99.90
10885;DHT22;5495;53.252;10.390;2022-11-20T03:11:14;0.50;99.90
10885;DHT22;5495;53.252;10.390;2022-11-20T03:13:42;0.50;99.90
10885;DHT22;5495;53.252;10.390;2022-11-20T03:16:11;0.60;99.90
10885;DHT22;5495;53.252;10.390;2022-11-20T03:18:38;0.60;99.90
10885;DHT22;5495;53.252;10.390;2022-11-20T03:21:06;0.70;99.90
10885;DHT22;5495;53.252;10.390;2022-11-20T03:23:34;0.70;99.90
10885;DHT22;5495;53.252;10.390;2022-11-20T03:26:08;0.70;99.90
10885;DHT22;5495;53.252;10.390;2022-11-20T03:28:35;0.70;99.90
10885;DHT22;5495;53.252;10.390;2022-11-20T03:31:07;0.70;99.90
10885;DHT22;5495;53.252;10.390;2022-11-20T03:33:34;0.80;99.90
10885;DHT22;5495;53.252;10.390;2022-11-20T03:36:02;0.90;99.90
10885;DHT22;5495;53.252;10.390;2022-11-20T03:38:29;0.90;99.90
10885;DHT22;5495;53.252;10.390;2022-11-20T03:40:59;0.90;99.90
10885;DHT22;5495;53.252;10.390;2022-11-20T03:43:27;0.90;99.90
10885;DHT22;5495;53.252;10.390;2022-11-20T03:45:54;1.00;99.90
10885;DHT22;5495;53.252;10.390;2022-11-20T03:48:21;1.00;99.90
10885;DHT22;5495;53.252;10.390;2022-11-20T03:50:48;1.00;99.90
10885;DHT22;5495;53.252;10.390;2022-11-20T03:53:16;1.00;99.90
10885;DHT22;5495;53.252;10.390;2022-11-20T03:55:43;1.00;99.90
10885;DHT22;5495;53.252;10.390;2022-11-20T03:58:10;0.90;99.90
10885;DHT22;5495;53.252;10.390;2022-11-20T04:00:37;1.00;99.90
10885;DHT22;5495;53.252;10.390;2022-11-20T04:03:03;0.90;99.90
10885;DHT22;5495;53.252;10.390;2022-11-20T04:05:33;1.00;99.90
10885;DHT22;5495;53.252;10.390;2022-11-20T04:08:00;0.90;99.90
10885;DHT22;5495;53.252;10.390;2022-11-20T04:10:27;0.90;99.90
10885;DHT22;5495;53.252;10.390;2022-11-20T04:12:54;0.90;99.90
10885;DHT22;5495;53.252;10.390;2022-11-20T04:15:21;0.90;99.90
10885;DHT22;5495;53.252;10.390;2022-11-20T04:17:48;0.90;99.90
10885;DHT22;5495;53.252;10.390;2022-11-20T04:20:15;1.00;99.90
10885;DHT22;5495;53.252;10.390;2022-11-20T04:22:42;0.90;99.90
10885;DHT22;5495;53.252;10.390;2022-11-20T04:25:09;1.00;99.90
10885;DHT22;5495;53.252;10.390;2022-11-20T04:27:36;1.00;99.90
10885;DHT22;5495;53.252;10.390;2022-11-20T04:30:03;1.00;99.90
10885;DHT22;5495;53.252;10.390;2022-11-20T04:32:30;1.00;99.90
10885;DHT22;5495;53.252;10.390;2022-11-20T04:34:57;1.00;99.90
10885;DHT22;5495;53.252;10.390;2022-11-20T04:37:24;1.00;99.90
10885;DHT22;5495;53.252;10.390;2022-11-20T04:39:51;1.10;99.90
10885;DHT22;5495;53.252;10.390;2022-11-20T04:42:19;1.10;99.90
10885;DHT22;5495;53.252;10.390;2022-11-20T04:44:54;1.10;99.90
10885;DHT22;5495;53.252;10.390;2022-11-20T04:47:22;1.10;99.90
10885;DHT22;5495;53.252;10.390;2022-11-20T04:49:49;1.20;99.90
10885;DHT22;5495;53.252;10.390;2022-11-20T04:52:15;1.10;99.90
10885;DHT22;5495;53.252;10.390;2022-11-20T04:54:43;1.10;99.90
10885;DHT22;5495;53.252;10.390;2022-11-20T04:57:12;1.10;99.90
10885;DHT22;5495;53.252;10.390;2022-11-20T04:59:41;0.30;99.90
10885;DHT22;5495;53.252;10.390;2022-11-20T05:02:08;1.20;99.90
10885;DHT22;5495;53.252;10.390;2022-11-20T05:04:35;1.10;99.90
10885;DHT22;5495;53.252;10.390;2022-11-20T05:07:02;1.20;99.90
10885;DHT22;5495;53.252;10.390;2022-11-20T05:09:30;1.20;99.90
10885;DHT22;5495;53.252;10.390;2022-11-20T05:11:57;1.20;99.90
10885;DHT22;5495;53.252;10.390;2022-11-20T05:14:24;1.20;99.90
10885;DHT22;5495;53.252;10.390;2022-11-20T05:16:51;1.20;99.90
10885;DHT22;5495;53.252;10.390;2022-11-20T05:19:18;1.20;99.90
10885;DHT22;5495;53.252;10.390;2022-11-20T05:21:45;1.20;99.90
10885;DHT22;5495;53.252;10.390;2022-11-20T05:24:12;1.20;99.90
10885;DHT22;5495;53.252;10.390;2022-11-20T05:26:39;1.20;99.90
10885;DHT22;5495;53.252;10.390;2022-11-20T05:29:06;1.20;99.90
10885;DHT22;5495;53.252;10.390;2022-11-20T05:31:34;1.20;99.90
10885;DHT22;5495;53.252;10.390;2022-11-20T05:34:02;1.20;99.90
10885;DHT22;5495;53.252;10.390;2022-11-20T05:36:30;1.20;99.90
10885;DHT22;5495;53.252;10.390;2022-11-20T05:38:57;1.20;99.90
10885;DHT22;5495;53.252;10.390;2022-11-20T05:41:24;1.30;99.90
10885;DHT22;5495;53.252;10.390;2022-11-20T05:43:51;1.20;99.90
10885;DHT22;5495;53.252;10.390;2022-11-20T05:46:19;1.30;99.90
10885;DHT22;5495;53.252;10.390;2022-11-20T05:48:47;1.30;99.90
10885;DHT22;5495;53.252;10.390;2022-11-20T05:51:16;1.30;99.90
10885;DHT22;5495;53.252;10.390;2022-11-20T05:53:43;1.30;99.90
10885;DHT22;5495;53.252;10.390;2022-11-20T05:56:12;1.30;99.90
10885;DHT22;5495;53.252;10.390;2022-11-20T05:58:39;1.30;99.90
10885;DHT22;5495;53.252;10.390;2022-11-20T06:01:08;1.30;99.90
10885;DHT22;5495;53.252;10.390;2022-11-20T06:03:35;1.40;99.90
10885;DHT22;5495;53.252;10.390;2022-11-20T06:06:05;1.30;99.90
10885;DHT22;5495;53.252;10.390;2022-11-20T06:08:34;1.30;99.90
10885;DHT22;5495;53.252;10.390;2022-11-20T06:11:05;1.30;99.90
10885;DHT22;5495;53.252;10.390;2022-11-20T06:13:33;1.40;99.90
10885;DHT22;5495;53.252;10.390;2022-11-20T06:16:00;1.30;99.90
10885;DHT22;5495;53.252;10.390;2022-11-20T06:18:28;1.30;99.90
10885;DHT22;5495;53.252;10.390;2022-11-20T06:21:03;1.30;99.90
10885;DHT22;5495;53.252;10.390;2022-11-20T06:23:31;1.30;99.90
10885;DHT22;5495;53.252;10.390;2022-11-20T06:26:01;1.30;99.90
10885;DHT22;5495;53.252;10.390;2022-11-20T06:28:28;1.30;99.90
10885;DHT22;5495;53.252;10.390;2022-11-20T06:30:55;0.20;99.90
10885;DHT22;5495;53.252;10.390;2022-11-20T06:33:23;1.30;99.90
10885;DHT22;5495;53.252;10.390;2022-11-20T06:35:50;1.30;99.90
10885;DHT22;5495;53.252;10.390;2022-11-20T06:38:18;1.20;99.90
10885;DHT22;5495;53.252;10.390;2022-11-20T06:40:45;1.30;99.90
10885;DHT22;5495;53.252;10.390;2022-11-20T06:43:11;1.30;99.90
10885;DHT22;5495;53.252;10.390;2022-11-20T06:45:38;1.30;99.90
10885;DHT22;5495;53.252;10.390;2022-11-20T06:48:06;1.30;99.90
10885;DHT22;5495;53.252;10.390;2022-11-20T06:50:32;1.30;99.90
10885;DHT22;5495;53.252;10.390;2022-11-20T06:53:01;1.20;99.90
10885;DHT22;5495;53.252;10.390;2022-11-20T06:55:29;1.20;99.90
10885;DHT22;5495;53.252;10.390;2022-11-20T06:57:57;1.20;99.90
10885;DHT22;5495;53.252;10.390;2022-11-20T07:00:24;1.20;99.90
10885;DHT22;5495;53.252;10.390;2022-11-20T07:02:50;1.20;99.90
10885;DHT22;5495;53.252;10.390;2022-11-20T07:05:17;1.20;99.90
10885;DHT22;5495;53.252;10.390;2022-11-20T07:07:44;1.20;99.90
10885;DHT22;5495;53.252;10.390;2022-11-20T07:10:12;1.20;99.90
10885;DHT22;5495;53.252;10.390;2022-11-20T07:12:39;1.20;99.90
10885;DHT22;5495;53.252;10.390;2022-11-20T07:15:07;1.20;99.90
10885;DHT22;5495;53.252;10.390;2022-11-20T07:17:34;1.20;99.90
10885;DHT22;5495;53.252;10.390;2022-11-20T07:20:01;1.10;99.90
10885;DHT22;5495;53.252;10.390;2022-11-20T07:22:28;1.10;99.90
10885;DHT22;5495;53.252;10.390;2022-11-20T07:24:55;1.10;99.90
10885;DHT22;5495;53.252;10.390;2022-11-20T07:27:22;1.10;99.90
10885;DHT22;5495;53.252;10.390;2022-11-20T07:29:50;1.10;99.90
10885;DHT22;5495;53.252;10.390;2022-11-20T07:32:19;1.10;99.90
10885;DHT22;5495;53.252;10.390;2022-11-20T07:34:46;1.10;99.90
10885;DHT22;5495;53.252;10.390;2022-11-20T07:37:13;1.20;99.90
10885;DHT22;5495;53.252;10.390;2022-11-20T07:39:40;1.20;99.90
10885;DHT22;5495;53.252;10.390;2022-11-20T07:42:07;1.20;99.90
10885;DHT22;5495;53.252;10.390;2022-11-20T07:44:34;1.20;99.90
10885;DHT22;5495;53.252;10.390;2022-11-20T07:47:02;1.20;99.90
10885;DHT22;5495;53.252;10.390;2022-11-20T07:49:29;1.30;99.90
10885;DHT22;5495;53.252;10.390;2022-11-20T07:51:56;1.30;99.90
10885;DHT22;5495;53.252;10.390;2022-11-20T07:54:23;1.30;99.90
10885;DHT22;5495;53.252;10.390;2022-11-20T07:56:50;0.40;99.90
10885;DHT22;5495;53.252;10.390;2022-11-20T07:59:17;1.30;99.90
10885;DHT22;5495;53.252;10.390;2022-11-20T08:01:44;1.40;99.90
10885;DHT22;5495;53.252;10.390;2022-11-20T08:04:12;1.40;99.90
10885;DHT22;5495;53.252;10.390;2022-11-20T08:06:39;1.40;99.90
10885;DHT22;5495;53.252;10.390;2022-11-20T08:09:06;1.40;99.90
10885;DHT22;5495;53.252;10.390;2022-11-20T08:11:33;1.50;99.90
10885;DHT22;5495;53.252;10.390;2022-11-20T08:14:18;1.50;99.90
10885;DHT22;5495;53.252;10.390;2022-11-20T08:16:46;1.60;99.90
10885;DHT22;5495;53.252;10.390;2022-11-20T08:19:16;1.60;99.90
10885;DHT22;5495;53.252;10.390;2022-11-20T08:21:43;1.70;99.90
10885;DHT22;5495;53.252;10.390;2022-11-20T08:24:10;1.70;99.90
10885;DHT22;5495;53.252;10.390;2022-11-20T08:26:38;1.80;99.90
10885;DHT22;5495;53.252;10.390;2022-11-20T08:29:06;1.80;99.90
10885;DHT22;5495;53.252;10.390;2022-11-20T08:31:33;1.90;99.90
10885;DHT22;5495;53.252;10.390;2022-11-20T08:34:00;2.00;99.90
10885;DHT22;5495;53.252;10.390;2022-11-20T08:36:28;2.00;99.90
10885;DHT22;5495;53.252;10.390;2022-11-20T08:38:55;2.20;99.90
10885;DHT22;5495;53.252;10.390;2022-11-20T08:41:22;2.30;99.90
10885;DHT22;5495;53.252;10.390;2022-11-20T08:43:55;2.30;99.90
10885;DHT22;5495;53.252;10.390;2022-11-20T08:46:27;2.30;99.90
10885;DHT22;5495;53.252;10.390;2022-11-20T08:48:54;2.30;99.90
10885;DHT22;5495;53.252;10.390;2022-11-20T08:51:21;2.40;99.90
10885;DHT22;5495;53.252;10.390;2022-11-20T08:53:48;2.40;99.90
10885;DHT22;5495;53.252;10.390;2022-11-20T08:56:16;2.40;99.90
10885;DHT22;5495;53.252;10.390;2022-11-20T08:58:43;2.50;99.90
10885;DHT22;5495;53.252;10.390;2022-11-20T09:01:10;2.50;99.90
10885;DHT22;5495;53.252;10.390;2022-11-20T09:03:37;2.60;99.90
10885;DHT22;5495;53.252;10.390;2022-11-20T09:06:06;2.70;99.90
10885;DHT22;5495;53.252;10.390;2022-11-20T09:08:34;2.90;99.90
10885;DHT22;5495;53.252;10.390;2022-11-20T09:11:02;3.00;99.90
10885;DHT22;5495;53.252;10.390;2022-11-20T09:13:30;3.10;99.90
10885;DHT22;5495;53.252;10.390;2022-11-20T09:15:59;3.20;99.90
10885;DHT22;5495;53.252;10.390;2022-11-20T09:18:27;3.30;99.90
10885;DHT22;5495;53.252;10.390;2022-11-20T09:20:57;3.30;99.90
10885;DHT22;5495;53.252;10.390;2022-11-20T09:23:24;3.40;99.90
10885;DHT22;5495;53.252;10.390;2022-11-20T09:25:51;3.40;99.90
10885;DHT22;5495;53.252;10.390;2022-11-20T09:28:21;3.50;99.90
10885;DHT22;5495;53.252;10.390;2022-11-20T09:30:48;3.40;99.90
10885;DHT22;5495;53.252;10.390;2022-11-20T09:33:16;3.50;99.90
10885;DHT22;5495;53.252;10.390;2022-11-20T09:35:45;3.40;99.90
10885;DHT22;5495;53.252;10.390;2022-11-20T09:38:12;3.40;99.90
10885;DHT22;5495;53.252;10.390;2022-11-20T09:40:43;3.40;99.90
10885;DHT22;5495;53.252;10.390;2022-11-20T09:43:17;3.30;99.90
10885;DHT22;5495;53.252;10.390;2022-11-20T09:45:56;3.20;99.90
10885;DHT22;5495;53.252;10.390;2022-11-20T09:48:42;3.30;99.90
10885;DHT22;5495;53.252;10.390;2022-11-20T09:51:19;3.20;99.90
10885;DHT22;5495;53.252;10.390;2022-11-20T09:53:56;3.30;99.90
10885;DHT22;5495;53.252;10.390;2022-11-20T09:56:28;3.30;99.90
10885;DHT22;5495;53.252;10.390;2022-11-20T09:58:59;3.30;99.90
10885;DHT22;5495;53.252;10.390;2022-11-20T10:01:31;3.40;99.90
10885;DHT22;5495;53.252;10.390;2022-11-20T10:04:01;3.60;99.90
10885;DHT22;5495;53.252;10.390;2022-11-20T10:06:31;3.80;99.90
10885;DHT22;5495;53.252;10.390;2022-11-20T10:09:18;3.90;99.90
10885;DHT22;5495;53.252;10.390;2022-11-20T10:11:56;4.10;99.90
10885;DHT22;5495;53.252;10.390;2022-11-20T10:14:35;4.40;99.90
10885;DHT22;5495;53.252;10.390;2022-11-20T10:17:15;4.70;99.90
10885;DHT22;5495;53.252;10.390;2022-11-20T10:20:00;4.90;99.90
10885;DHT22;5495;53.252;10.390;2022-11-20T10:22:40;5.00;99.90
10885;DHT22;5495;53.252;10.390;2022-11-20T10:25:14;5.00;99.90
10885;DHT22;5495;53.252;10.390;2022-11-20T10:30:50;5.00;99.90
10885;DHT22;5495;53.252;10.390;2022-11-20T10:33:22;4.90;99.90
10885;DHT22;5495;53.252;10.390;2022-11-20T10:35:54;4.80;99.90
10885;DHT22;5495;53.252;10.390;2022-11-20T10:38:24;4.80;99.90
10885;DHT22;5495;53.252;10.390;2022-11-20T10:40:54;4.80;99.90
10885;DHT22;5495;53.252;10.390;2022-11-20T10:43:45;4.80;99.90
10885;DHT22;5495;53.252;10.390;2022-11-20T10:46:15;4.90;99.90
10885;DHT22;5495;53.252;10.390;2022-11-20T10:48:45;5.00;99.90
10885;DHT22;5495;53.252;10.390;2022-11-20T10:51:18;5.10;99.90
10885;DHT22;5495;53.252;10.390;2022-11-20T10:54:00;5.20;99.90
10885;DHT22;5495;53.252;10.390;2022-11-20T10:56:33;5.40;99.90
10885;DHT22;5495;53.252;10.390;2022-11-20T11:02:01;6.10;99.90
10885;DHT22;5495;53.252;10.390;2022-11-20T11:04:36;5.80;99.90
10885;DHT22;5495;53.252;10.390;2022-11-20T11:07:09;6.40;99.90
10885;DHT22;5495;53.252;10.390;2022-11-20T11:09:42;8.10;99.90
10885;DHT22;5495;53.252;10.390;2022-11-20T11:12:10;8.90;99.90
10885;DHT22;5495;53.252;10.390;2022-11-20T11:14:48;10.10;99.90
10885;DHT22;5495;53.252;10.390;2022-11-20T11:17:28;10.10;99.90
10885;DHT22;5495;53.252;10.390;2022-11-20T11:20:05;10.60;99.90
10885;DHT22;5495;53.252;10.390;2022-11-20T11:22:34;11.40;99.90
10885;DHT22;5495;53.252;10.390;2022-11-20T11:25:20;12.80;98.20
10885;DHT22;5495;53.252;10.390;2022-11-20T11:27:51;15.90;96.60
10885;DHT22;5495;53.252;10.390;2022-11-20T11:30:23;13.70;96.00
10885;DHT22;5495;53.252;10.390;2022-11-20T11:33:02;12.00;96.50
10885;DHT22;5495;53.252;10.390;2022-11-20T11:35:30;10.80;97.50
10885;DHT22;5495;53.252;10.390;2022-11-20T11:38:04;9.00;98.90
10885;DHT22;5495;53.252;10.390;2022-11-20T11:40:35;7.60;99.90
10885;DHT22;5495;53.252;10.390;2022-11-20T11:43:06;7.10;99.90
10885;DHT22;5495;53.252;10.390;2022-11-20T11:45:55;6.40;99.90
10885;DHT22;5495;53.252;10.390;2022-11-20T11:48:24;5.80;99.90
10885;DHT22;5495;53.252;10.390;2022-11-20T11:50:53;5.50;99.90
10885;DHT22;5495;53.252;10.390;2022-11-20T11:53:23;5.30;99.90
10885;DHT22;5495;53.252;10.390;2022-11-20T11:55:56;5.00;99.90
10885;DHT22;5495;53.252;10.390;2022-11-20T11:58:43;4.70;99.90
10885;DHT22;5495;53.252;10.390;2022-11-20T12:01:28;4.60;99.90
10885;DHT22;5495;53.252;10.390;2022-11-20T12:04:04;4.40;99.90
10885;DHT22;5495;53.252;10.390;2022-11-20T12:06:35;4.30;99.90
10885;DHT22;5495;53.252;10.390;2022-11-20T12:09:08;4.30;99.90
10885;DHT22;5495;53.252;10.390;2022-11-20T12:11:42;4.30;99.90
10885;DHT22;5495;53.252;10.390;2022-11-20T12:14:16;4.30;99.90
10885;DHT22;5495;53.252;10.390;2022-11-20T12:16:50;4.50;99.90
10885;DHT22;5495;53.252;10.390;2022-11-20T12:19:19;4.40;99.90
10885;DHT22;5495;53.252;10.390;2022-11-20T12:21:57;4.70;99.90
10885;DHT22;5495;53.252;10.390;2022-11-20T12:24:42;4.70;99.90
10885;DHT22;5495;53.252;10.390;2022-11-20T12:27:30;4.80;99.90
10885;DHT22;5495;53.252;10.390;2022-11-20T12:30:08;4.80;99.90
10885;DHT22;5495;53.252;10.390;2022-11-20T12:38:56;4.50;99.90
10885;DHT22;5495;53.252;10.390;2022-11-20T12:41:37;4.60;99.90
10885;DHT22;5495;53.252;10.390;2022-11-20T12:44:39;4.50;99.90
10885;DHT22;5495;53.252;10.390;2022-11-20T12:47:34;4.40;99.90
10885;DHT22;5495;53.252;10.390;2022-11-20T12:50:10;4.20;99.90
10885;DHT22;5495;53.252;10.390;2022-11-20T12:52:48;4.30;99.90
10885;DHT22;5495;53.252;10.390;2022-11-20T12:55:28;4.10;99.90
10885;DHT22;5495;53.252;10.390;2022-11-20T12:58:05;3.70;99.90
10885;DHT22;5495;53.252;10.390;2022-11-20T13:00:40;4.00;99.90
10885;DHT22;5495;53.252;10.390;2022-11-20T13:03:24;3.90;99.90
10885;DHT22;5495;53.252;10.390;2022-11-20T13:06:06;3.70;99.90
10885;DHT22;5495;53.252;10.390;2022-11-20T13:08:41;3.70;99.90
10885;DHT22;5495;53.252;10.390;2022-11-20T13:11:16;3.60;99.90
10885;DHT22;5495;53.252;10.390;2022-11-20T13:14:04;2.50;99.90
10885;DHT22;5495;53.252;10.390;2022-11-20T13:16:38;3.00;99.90
10885;DHT22;5495;53.252;10.390;2022-11-20T13:19:18;3.40;99.90
10885;DHT22;5495;53.252;10.390;2022-11-20T13:21:47;3.20;99.90
10885;DHT22;5495;53.252;10.390;2022-11-20T13:24:26;3.40;99.90
10885;DHT22;5495;53.252;10.390;2022-11-20T13:27:19;3.10;99.90
10885;DHT22;5495;53.252;10.390;2022-11-20T13:29:58;3.10;99.90
10885;DHT22;5495;53.252;10.390;2022-11-20T13:32:28;3.10;99.90
10885;DHT22;5495;53.252;10.390;2022-11-20T13:35:02;3.10;99.90
10885;DHT22;5495;53.252;10.390;2022-11-20T13:37:31;3.10;99.90
10885;DHT22;5495;53.252;10.390;2022-11-20T13:40:21;3.00;99.90
10885;DHT22;5495;53.252;10.390;2022-11-20T13:43:00;3.10;99.90
10885;DHT22;5495;53.252;10.390;2022-11-20T13:45:29;3.00;99.90
10885;DHT22;5495;53.252;10.390;2022-11-20T13:48:15;3.00;99.90
10885;DHT22;5495;53.252;10.390;2022-11-20T13:50:55;3.50;99.90
10885;DHT22;5495;53.252;10.390;2022-11-20T13:53:35;3.10;99.90
10885;DHT22;5495;53.252;10.390;2022-11-20T13:56:10;3.10;99.90
10885;DHT22;5495;53.252;10.390;2022-11-20T13:58:51;3.10;99.90
10885;DHT22;5495;53.252;10.390;2022-11-20T14:01:21;3.10;99.90
10885;DHT22;5495;53.252;10.390;2022-11-20T14:03:49;3.10;99.90
10885;DHT22;5495;53.252;10.390;2022-11-20T14:06:30;3.10;99.90
10885;DHT22;5495;53.252;10.390;2022-11-20T14:09:01;3.00;99.90
10885;DHT22;5495;53.252;10.390;2022-11-20T14:11:30;3.20;99.90
10885;DHT22;5495;53.252;10.390;2022-11-20T14:14:00;3.10;99.90
10885;DHT22;5495;53.252;10.390;2022-11-20T14:16:30;3.10;99.90
10885;DHT22;5495;53.252;10.390;2022-11-20T14:19:00;3.10;99.90
10885;DHT22;5495;53.252;10.390;2022-11-20T14:21:43;3.00;99.90
10885;DHT22;5495;53.252;10.390;2022-11-20T14:24:11;3.00;99.90
10885;DHT22;5495;53.252;10.390;2022-11-20T14:26:42;2.90;99.90
10885;DHT22;5495;53.252;10.390;2022-11-20T14:29:13;2.80;99.90
10885;DHT22;5495;53.252;10.390;2022-11-20T14:31:41;2.80;99.90
10885;DHT22;5495;53.252;10.390;2022-11-20T14:34:14;2.60;99.90
10885;DHT22;5495;53.252;10.390;2022-11-20T14:36:43;2.60;99.90
10885;DHT22;5495;53.252;10.390;2022-11-20T14:39:19;2.60;99.90
10885;DHT22;5495;53.252;10.390;2022-11-20T14:41:50;2.60;99.90
10885;DHT22;5495;53.252;10.390;2022-11-20T14:44:21;2.60;99.90
10885;DHT22;5495;53.252;10.390;2022-11-20T14:46:52;2.60;99.90
10885;DHT22;5495;53.252;10.390;2022-11-20T14:49:22;2.60;99.90
10885;DHT22;5495;53.252;10.390;2022-11-20T14:51:58;2.60;99.90
10885;DHT22;5495;53.252;10.390;2022-11-20T14:54:26;2.60;99.90
10885;DHT22;5495;53.252;10.390;2022-11-20T14:56:55;2.60;99.90
10885;DHT22;5495;53.252;10.390;2022-11-20T14:59:25;2.60;99.90
10885;DHT22;5495;53.252;10.390;2022-11-20T15:02:00;2.30;99.90
10885;DHT22;5495;53.252;10.390;2022-11-20T15:04:33;2.60;99.90
10885;DHT22;5495;53.252;10.390;2022-11-20T15:07:04;2.80;99.90
10885;DHT22;5495;53.252;10.390;2022-11-20T15:09:33;2.50;99.90
10885;DHT22;5495;53.252;10.390;2022-11-20T15:12:02;2.50;99.90
10885;DHT22;5495;53.252;10.390;2022-11-20T15:14:31;2.40;99.90
10885;DHT22;5495;53.252;10.390;2022-11-20T15:16:59;2.30;99.90
10885;DHT22;5495;53.252;10.390;2022-11-20T15:19:30;2.20;99.90
10885;DHT22;5495;53.252;10.390;2022-11-20T15:22:02;1.80;99.90
10885;DHT22;5495;53.252;10.390;2022-11-20T15:24:29;1.90;99.90
10885;DHT22;5495;53.252;10.390;2022-11-20T15:26:58;1.80;99.90
10885;DHT22;5495;53.252;10.390;2022-11-20T15:29:29;1.70;99.90
10885;DHT22;5495;53.252;10.390;2022-11-20T15:31:56;1.50;99.90
10885;DHT22;5495;53.252;10.390;2022-11-20T15:34:26;1.40;99.90
10885;DHT22;5495;53.252;10.390;2022-11-20T15:36:53;1.20;99.90
10885;DHT22;5495;53.252;10.390;2022-11-20T15:39:22;1.20;99.90
10885;DHT22;5495;53.252;10.390;2022-11-20T15:41:49;1.10;99.90
10885;DHT22;5495;53.252;10.390;2022-11-20T15:44:17;1.00;99.90
10885;DHT22;5495;53.252;10.390;2022-11-20T15:46:45;0.90;99.90
10885;DHT22;5495;53.252;10.390;2022-11-20T15:49:14;0.90;99.90
10885;DHT22;5495;53.252;10.390;2022-11-20T15:51:42;0.90;99.90
10885;DHT22;5495;53.252;10.390;2022-11-20T15:54:14;0.90;99.90
10885;DHT22;5495;53.252;10.390;2022-11-20T15:56:43;0.10;99.90
10885;DHT22;5495;53.252;10.390;2022-11-20T15:59:10;0.90;99.90
10885;DHT22;5495;53.252;10.390;2022-11-20T16:01:41;0.90;99.90
10885;DHT22;5495;53.252;10.390;2022-11-20T16:04:13;0.90;99.90
10885;DHT22;5495;53.252;10.390;2022-11-20T16:06:41;0.90;99.90
10885;DHT22;5495;53.252;10.390;2022-11-20T16:09:08;0.90;99.90
10885;DHT22;5495;53.252;10.390;2022-11-20T16:11:36;0.90;99.90
10885;DHT22;5495;53.252;10.390;2022-11-20T16:14:06;0.90;99.90
10885;DHT22;5495;53.252;10.390;2022-11-20T16:16:50;0.90;99.90
10885;DHT22;5495;53.252;10.390;2022-11-20T16:19:18;0.90;99.90
10885;DHT22;5495;53.252;10.390;2022-11-20T16:21:46;1.00;99.90